Time,TemperatureF,DewpointF,PressureIn,WindDirection,WindDirectionDegrees,WindSpeedMPH,WindSpeedGustMPH,Humidity,HourlyPrecipIn,Conditions,Clouds,dailyrainin,SoftwareType,DateUTC
2013-08-30 00:12:00,81.5,75.0,29.96,SW,215,0.0,5.0,80,0.00,,,0.00,weatherlink.com 1.10,2013-08-30 05:12:00,
2013-08-30 00:27:00,81.1,75.0,29.95,South,171,0.0,4.0,82,0.00,,,0.00,weatherlink.com 1.10,2013-08-30 05:27:00,
2013-08-30 00:43:00,80.8,75.0,29.96,SSW,194,0.0,3.0,83,0.00,,,0.00,weatherlink.com 1.10,2013-08-30 05:43:00,
2013-08-30 00:58:00,80.4,75.0,29.95,South,188,1.0,3.0,84,0.00,,,0.00,weatherlink.com 1.10,2013-08-30 05:58:00,
2013-08-30 01:13:00,80.0,75.0,29.95,South,175,0.0,4.0,85,0.00,,,0.00,weatherlink.com 1.10,2013-08-30 06:13:00,
2013-08-30 01:28:00,79.7,75.0,29.95,South,173,4.0,4.0,86,0.00,,,0.00,weatherlink.com 1.10,2013-08-30 06:28:00,
2013-08-30 01:43:00,79.4,75.0,29.95,SSW,192,1.0,4.0,86,0.00,,,0.00,weatherlink.com 1.10,2013-08-30 06:43:00,
2013-08-30 01:58:00,79.2,75.0,29.95,South,186,2.0,6.0,87,0.00,,,0.00,weatherlink.com 1.10,2013-08-30 06:58:00,
2013-08-30 02:13:00,79.0,75.0,29.95,SSE,156,0.0,6.0,88,0.00,,,0.00,weatherlink.com 1.10,2013-08-30 07:13:00,
2013-08-30 02:28:00,78.9,75.0,29.95,South,180,3.0,6.0,88,0.00,,,0.00,weatherlink.com 1.10,2013-08-30 07:28:00,
2013-08-30 02:43:00,78.7,75.0,29.95,SSW,192,1.0,3.0,89,0.00,,,0.00,weatherlink.com 1.10,2013-08-30 07:43:00,
2013-08-30 02:58:00,78.6,75.0,29.95,South,172,0.0,7.0,89,0.00,,,0.00,weatherlink.com 1.10,2013-08-30 07:58:00,
2013-08-30 03:13:00,78.4,75.0,29.95,SE,134,0.0,2.0,89,0.00,,,0.00,weatherlink.com 1.10,2013-08-30 08:13:00,
2013-08-30 03:28:00,78.2,75.0,29.95,South,181,0.0,3.0,89,0.00,,,0.00,weatherlink.com 1.10,2013-08-30 08:28:00,
2013-08-30 03:43:00,78.0,75.0,29.96,South,180,0.0,1.0,90,0.00,,,0.00,weatherlink.com 1.10,2013-08-30 08:43:00,
2013-08-30 03:58:00,77.8,75.0,29.96,South,177,0.0,3.0,90,0.00,,,0.00,weatherlink.com 1.10,2013-08-30 08:58:00,
2013-08-30 04:13:00,77.6,75.0,29.96,South,177,0.0,1.0,90,0.00,,,0.00,weatherlink.com 1.10,2013-08-30 09:13:00,
2013-08-30 04:28:00,77.3,74.0,29.95,South,177,2.0,2.0,90,0.00,,,0.00,weatherlink.com 1.10,2013-08-30 09:28:00,
2013-08-30 04:43:00,77.0,74.0,29.96,SSE,164,0.0,1.0,91,0.00,,,0.00,weatherlink.com 1.10,2013-08-30 09:43:00,
2013-08-30 04:58:00,76.8,74.0,29.96,South,171,0.0,4.0,92,0.00,,,0.00,weatherlink.com 1.10,2013-08-30 09:58:00,
2013-08-30 05:13:00,76.7,74.0,29.96,South,173,1.0,4.0,92,0.00,,,0.00,weatherlink.com 1.10,2013-08-30 10:13:00,
2013-08-30 05:28:00,76.6,74.0,29.96,South,174,1.0,3.0,92,0.00,,,0.00,weatherlink.com 1.10,2013-08-30 10:28:00,
2013-08-30 05:43:00,76.6,75.0,29.96,SSE,166,2.0,5.0,93,0.00,,,0.00,weatherlink.com 1.10,2013-08-30 10:43:00,
2013-08-30 05:58:00,76.5,74.0,29.96,South,180,1.0,2.0,93,0.00,,,0.00,weatherlink.com 1.10,2013-08-30 10:58:00,
2013-08-30 06:13:00,76.5,74.0,29.96,South,180,1.0,4.0,93,0.00,,,0.00,weatherlink.com 1.10,2013-08-30 11:13:00,
2013-08-30 06:28:00,76.4,74.0,29.97,South,173,2.0,3.0,93,0.00,,,0.00,weatherlink.com 1.10,2013-08-30 11:28:00,
2013-08-30 06:43:00,76.3,75.0,29.97,South,181,1.0,4.0,94,0.00,,,0.00,weatherlink.com 1.10,2013-08-30 11:43:00,
2013-08-30 06:58:00,76.2,74.0,29.97,South,182,0.0,2.0,93,0.00,,,0.00,weatherlink.com 1.10,2013-08-30 11:58:00,
2013-08-30 07:13:00,76.2,74.0,29.97,SSW,207,0.0,4.0,94,0.00,,,0.00,weatherlink.com 1.10,2013-08-30 12:13:00,
2013-08-30 07:28:00,76.3,75.0,29.98,SSW,197,4.0,5.0,94,0.00,,,0.00,weatherlink.com 1.10,2013-08-30 12:28:00,
2013-08-30 07:43:00,76.5,75.0,29.98,South,178,3.0,5.0,94,0.00,,,0.00,weatherlink.com 1.10,2013-08-30 12:43:00,
2013-08-30 07:58:00,76.9,75.0,29.98,South,186,3.0,6.0,94,0.00,,,0.00,weatherlink.com 1.10,2013-08-30 12:58:00,
2013-08-30 08:13:00,78.0,76.0,29.97,SSE,157,3.0,7.0,94,0.00,,,0.00,weatherlink.com 1.10,2013-08-30 13:13:00,
2013-08-30 08:28:00,79.7,77.0,29.97,SSE,159,3.0,11.0,90,0.00,,,0.00,weatherlink.com 1.10,2013-08-30 13:28:00,
2013-08-30 08:43:00,81.8,77.0,29.98,South,186,1.0,8.0,86,0.00,,,0.00,weatherlink.com 1.10,2013-08-30 13:43:00,
2013-08-30 08:58:00,83.3,77.0,29.98,SSW,203,5.0,12.0,82,0.00,,,0.00,weatherlink.com 1.10,2013-08-30 13:58:00,
2013-08-30 09:13:00,84.7,78.0,29.98,SW,225,3.0,10.0,79,0.00,,,0.00,weatherlink.com 1.10,2013-08-30 14:13:00,
2013-08-30 09:28:00,85.7,77.0,29.97,South,189,4.0,10.0,75,0.00,,,0.00,weatherlink.com 1.10,2013-08-30 14:28:00,
2013-08-30 09:43:00,87.0,75.0,29.97,South,184,5.0,8.0,68,0.00,,,0.00,weatherlink.com 1.10,2013-08-30 14:43:00,
2013-08-30 09:59:00,88.3,74.0,29.97,SW,219,3.0,12.0,63,0.00,,,0.00,weatherlink.com 1.10,2013-08-30 14:59:00,
2013-08-30 10:14:00,89.6,74.0,29.97,South,173,6.0,9.0,61,0.00,,,0.00,weatherlink.com 1.10,2013-08-30 15:14:00,
2013-08-30 10:29:00,90.5,74.0,29.97,SSW,203,3.0,9.0,58,0.00,,,0.00,weatherlink.com 1.10,2013-08-30 15:29:00,
2013-08-30 10:44:00,91.6,74.0,29.97,South,186,1.0,8.0,56,0.00,,,0.00,weatherlink.com 1.10,2013-08-30 15:44:00,
2013-08-30 10:59:00,93.1,73.0,29.96,South,185,1.0,7.0,52,0.00,,,0.00,weatherlink.com 1.10,2013-08-30 15:59:00,
2013-08-30 11:14:00,94.0,74.0,29.96,West,262,2.0,4.0,52,0.00,,,0.00,weatherlink.com 1.10,2013-08-30 16:14:00,
2013-08-30 11:29:00,94.9,73.0,29.96,South,188,2.0,8.0,49,0.00,,,0.00,weatherlink.com 1.10,2013-08-30 16:29:00,
2013-08-30 11:44:00,92.9,73.0,29.95,NW,324,2.0,3.0,53,0.00,,,0.00,weatherlink.com 1.10,2013-08-30 16:44:00,
2013-08-30 11:59:00,93.2,72.0,29.95,WNW,288,2.0,5.0,51,0.00,,,0.00,weatherlink.com 1.10,2013-08-30 16:59:00,
2013-08-30 12:14:00,93.4,72.0,29.95,West,276,1.0,6.0,50,0.00,,,0.00,weatherlink.com 1.10,2013-08-30 17:14:00,
2013-08-30 12:29:00,94.0,71.0,29.94,NNW,330,2.0,5.0,48,0.00,,,0.00,weatherlink.com 1.10,2013-08-30 17:29:00,
2013-08-30 12:44:00,93.7,73.0,29.93,ENE,62,0.0,6.0,51,0.00,,,0.00,weatherlink.com 1.10,2013-08-30 17:44:00,
2013-08-30 12:59:00,93.2,73.0,29.93,SW,232,2.0,7.0,52,0.00,,,0.00,weatherlink.com 1.10,2013-08-30 17:59:00,
2013-08-30 13:14:00,93.2,72.0,29.92,NW,326,3.0,6.0,51,0.00,,,0.00,weatherlink.com 1.10,2013-08-30 18:14:00,
2013-08-30 13:29:00,94.8,72.0,29.92,East,96,1.0,6.0,47,0.00,,,0.00,weatherlink.com 1.10,2013-08-30 18:29:00,
2013-08-30 13:44:00,95.1,72.0,29.91,NNW,334,4.0,7.0,48,0.00,,,0.00,weatherlink.com 1.10,2013-08-30 18:44:00,
2013-08-30 13:59:00,95.2,72.0,29.91,WNW,302,3.0,6.0,47,0.00,,,0.00,weatherlink.com 1.10,2013-08-30 18:59:00,
2013-08-30 14:14:00,95.7,72.0,29.90,East,97,2.0,11.0,46,0.00,,,0.00,weatherlink.com 1.10,2013-08-30 19:14:00,
2013-08-30 14:29:00,94.7,71.0,29.89,NE,41,2.0,5.0,47,0.00,,,0.00,weatherlink.com 1.10,2013-08-30 19:29:00,
2013-08-30 14:44:00,96.6,72.0,29.89,North,355,5.0,7.0,45,0.00,,,0.00,weatherlink.com 1.10,2013-08-30 19:44:00,
2013-08-30 14:59:00,97.7,72.0,29.88,NNE,26,3.0,5.0,43,0.00,,,0.00,weatherlink.com 1.10,2013-08-30 19:59:00,
2013-08-30 15:14:00,97.5,71.0,29.87,NNW,347,1.0,7.0,42,0.00,,,0.00,weatherlink.com 1.10,2013-08-30 20:14:00,
2013-08-30 15:29:00,97.8,71.0,29.87,North,11,0.0,8.0,42,0.00,,,0.00,weatherlink.com 1.10,2013-08-30 20:29:00,
2013-08-30 15:44:00,97.6,71.0,29.86,North,5,5.0,6.0,42,0.00,,,0.00,weatherlink.com 1.10,2013-08-30 20:44:00,
2013-08-30 15:59:00,97.7,70.0,29.86,NNW,342,4.0,8.0,41,0.00,,,0.00,weatherlink.com 1.10,2013-08-30 20:59:00,
2013-08-30 16:14:00,97.5,70.0,29.85,SSE,161,1.0,8.0,41,0.00,,,0.00,weatherlink.com 1.10,2013-08-30 21:14:00,
2013-08-30 16:30:00,97.8,70.0,29.85,ESE,106,1.0,8.0,41,0.00,,,0.00,weatherlink.com 1.10,2013-08-30 21:30:00,
2013-08-30 16:45:00,97.9,70.0,29.84,NNE,29,1.0,7.0,41,0.00,,,0.00,weatherlink.com 1.10,2013-08-30 21:45:00,
2013-08-30 17:00:00,97.3,71.0,29.84,NNW,327,3.0,8.0,42,0.00,,,0.00,weatherlink.com 1.10,2013-08-30 22:00:00,
2013-08-30 17:15:00,97.6,70.0,29.84,NW,308,2.0,8.0,41,0.00,,,0.00,weatherlink.com 1.10,2013-08-30 22:15:00,
2013-08-30 17:30:00,97.4,71.0,29.84,NNE,28,7.0,8.0,42,0.00,,,0.00,weatherlink.com 1.10,2013-08-30 22:30:00,
2013-08-30 17:45:00,96.9,70.0,29.84,NNE,13,3.0,7.0,42,0.00,,,0.00,weatherlink.com 1.10,2013-08-30 22:45:00,
2013-08-30 18:00:00,96.3,70.0,29.84,NE,44,1.0,8.0,43,0.00,,,0.00,weatherlink.com 1.10,2013-08-30 23:00:00,
2013-08-30 18:15:00,96.1,71.0,29.83,NNE,13,0.0,7.0,44,0.00,,,0.00,weatherlink.com 1.10,2013-08-30 23:15:00,
2013-08-30 18:30:00,95.9,71.0,29.83,NNE,17,2.0,8.0,44,0.00,,,0.00,weatherlink.com 1.10,2013-08-30 23:30:00,
2013-08-30 18:45:00,95.5,71.0,29.83,NE,48,3.0,6.0,45,0.00,,,0.00,weatherlink.com 1.10,2013-08-30 23:45:00,
2013-08-30 19:00:00,95.0,71.0,29.83,ENE,64,2.0,4.0,46,0.00,,,0.00,weatherlink.com 1.10,2013-08-31 00:00:00,
2013-08-30 19:15:00,94.4,71.0,29.84,SE,130,0.0,5.0,47,0.00,,,0.00,weatherlink.com 1.10,2013-08-31 00:15:00,
2013-08-30 19:30:00,93.8,72.0,29.84,SE,129,0.0,3.0,49,0.00,,,0.00,weatherlink.com 1.10,2013-08-31 00:30:00,
2013-08-30 19:45:00,93.0,72.0,29.84,South,180,2.0,2.0,51,0.00,,,0.00,weatherlink.com 1.10,2013-08-31 00:45:00,
2013-08-30 20:00:00,91.9,72.0,29.84,SW,223,0.0,1.0,53,0.00,,,0.00,weatherlink.com 1.10,2013-08-31 01:00:00,
2013-08-30 20:15:00,90.8,72.0,29.84,South,169,0.0,2.0,55,0.00,,,0.00,weatherlink.com 1.10,2013-08-31 01:15:00,
2013-08-30 20:30:00,89.8,73.0,29.85,SSW,192,0.0,7.0,57,0.00,,,0.00,weatherlink.com 1.10,2013-08-31 01:30:00,
2013-08-30 20:45:00,89.0,73.0,29.85,SSW,194,5.0,6.0,59,0.00,,,0.00,weatherlink.com 1.10,2013-08-31 01:45:00,
2013-08-30 21:00:00,88.3,73.0,29.85,SSW,193,1.0,6.0,61,0.00,,,0.00,weatherlink.com 1.10,2013-08-31 02:00:00,
2013-08-30 21:15:00,87.6,74.0,29.86,South,180,2.0,6.0,64,0.00,,,0.00,weatherlink.com 1.10,2013-08-31 02:15:00,
2013-08-30 21:30:00,86.9,74.0,29.86,SSW,202,2.0,8.0,66,0.00,,,0.00,weatherlink.com 1.10,2013-08-31 02:30:00,
2013-08-30 21:45:00,86.2,74.0,29.86,SSE,161,2.0,10.0,68,0.00,,,0.00,weatherlink.com 1.10,2013-08-31 02:45:00,
2013-08-30 22:00:00,85.6,74.0,29.87,SSW,192,1.0,8.0,69,0.00,,,0.00,weatherlink.com 1.10,2013-08-31 03:00:00,
2013-08-30 22:15:00,85.0,74.0,29.87,South,186,4.0,8.0,69,0.00,,,0.00,weatherlink.com 1.10,2013-08-31 03:15:00,
2013-08-30 22:30:00,84.4,74.0,29.87,SSW,202,2.0,7.0,70,0.00,,,0.00,weatherlink.com 1.10,2013-08-31 03:30:00,
2013-08-30 22:45:00,83.8,73.0,29.87,South,186,3.0,8.0,70,0.00,,,0.00,weatherlink.com 1.10,2013-08-31 03:45:00,
2013-08-30 23:00:00,83.3,73.0,29.87,SW,222,2.0,8.0,71,0.00,,,0.00,weatherlink.com 1.10,2013-08-31 04:00:00,
2013-08-30 23:15:00,82.7,73.0,29.87,South,169,3.0,8.0,72,0.00,,,0.00,weatherlink.com 1.10,2013-08-31 04:15:00,
2013-08-30 23:30:00,82.3,73.0,29.87,SSE,165,3.0,9.0,73,0.00,,,0.00,weatherlink.com 1.10,2013-08-31 04:30:00,
2013-08-30 23:45:00,81.8,73.0,29.87,SSE,163,4.0,7.0,74,0.00,,,0.00,weatherlink.com 1.10,2013-08-31 04:45:00,